Time;durP1;ratioP1;P1;durP2;ratioP2;P2;SDS_P1;SDS_P2;PMS_P1;PMS_P2;Temp;Humidity;BMP_temperature;BMP_pressure;BME280_temperature;BME280_humidity;BME280_pressure;Samples;Min_cycle;Max_cycle;Signal;HPM_P1;HPM_P2
2022/10/09 00:00:17;;;;;;;47.00;25.93;;;;;;;11.49;100.00;95070.34;5111454;28;20298;-79
2022/10/09 00:02:52;;;;;;;35.37;23.40;;;;;;;11.18;100.00;95066.00;5112199;28;20272;-79
2022/10/09 00:05:19;;;;;;;45.03;25.07;;;;;;;11.01;100.00;95062.31;5112139;28;20642;-78
2022/10/09 00:07:46;;;;;;;43.83;25.50;;;;;;;10.60;100.00;95067.94;5113300;27;20236;-80
2022/10/09 00:10:13;;;;;;;46.03;26.43;;;;;;;10.49;100.00;95065.19;5113195;28;20193;-80
2022/10/09 00:12:40;;;;;;;42.77;25.80;;;;;;;10.51;100.00;95055.38;5112798;28;20198;-79
2022/10/09 00:15:09;;;;;;;36.83;25.30;;;;;;;10.56;100.00;95056.34;5112139;28;20196;-80
2022/10/09 00:17:35;;;;;;;42.17;24.90;;;;;;;10.65;100.00;95055.09;5112636;28;20243;-79
2022/10/09 00:20:03;;;;;;;38.53;24.37;;;;;;;10.73;100.00;95039.28;5121017;27;20215;-80
2022/10/09 00:22:30;;;;;;;41.47;24.80;;;;;;;10.87;100.00;95041.81;5133145;27;20192;-80
2022/10/09 00:24:56;;;;;;;41.13;23.77;;;;;;;11.00;100.00;95050.31;5132761;27;20195;-79
2022/10/09 00:27:23;;;;;;;33.33;19.80;;;;;;;11.04;100.00;95042.88;5132502;27;20585;-78
2022/10/09 00:29:50;;;;;;;33.53;19.37;;;;;;;11.05;100.00;95047.09;5132579;27;20242;-80
2022/10/09 00:32:19;;;;;;;25.07;14.63;;;;;;;11.05;100.00;95042.69;5132728;27;20696;-80
2022/10/09 00:34:45;;;;;;;22.03;15.07;;;;;;;11.02;100.00;95037.09;5132372;27;20203;-80
2022/10/09 00:37:12;;;;;;;25.17;13.87;;;;;;;11.09;100.00;95040.44;5132506;27;20199;-80
2022/10/09 00:39:39;;;;;;;20.83;14.33;;;;;;;11.09;100.00;95035.25;5132856;27;20215;-79
2022/10/09 00:42:06;;;;;;;21.93;12.63;;;;;;;10.98;100.00;95015.91;5132538;27;20210;-79
2022/10/09 00:44:53;;;;;;;20.03;11.60;;;;;;;10.96;100.00;95022.34;5132537;27;20206;-79
2022/10/09 00:47:26;;;;;;;17.67;11.73;;;;;;;10.94;100.00;95025.13;5132411;27;20313;-77
2022/10/09 00:49:56;;;;;;;24.07;12.80;;;;;;;10.88;100.00;95023.38;5132172;27;20199;-77
2022/10/09 00:52:25;;;;;;;19.53;13.30;;;;;;;10.89;100.00;95014.56;5132497;27;20195;-78
2022/10/09 00:54:54;;;;;;;22.87;14.17;;;;;;;10.97;100.00;95016.91;5132512;27;20202;-78
2022/10/09 00:57:20;;;;;;;21.27;14.37;;;;;;;11.00;100.00;95016.50;5132280;27;20545;-79
2022/10/09 00:59:47;;;;;;;24.20;14.20;;;;;;;11.01;100.00;95014.69;5132323;27;20222;-79
2022/10/09 01:02:14;;;;;;;28.07;15.67;;;;;;;11.08;100.00;95010.25;5132335;27;20202;-78
2022/10/09 01:04:42;;;;;;;24.80;15.07;;;;;;;11.07;100.00;95017.25;5131893;27;20792;-78
2022/10/09 01:07:23;;;;;;;25.43;15.03;;;;;;;11.00;100.00;95016.50;5132953;27;20195;-79
2022/10/09 01:09:56;;;;;;;23.33;14.60;;;;;;;10.96;100.00;95007.53;5133014;27;20186;-79
2022/10/09 01:12:34;;;;;;;19.20;13.80;;;;;;;10.68;100.00;95012.31;5132633;27;20202;-78
2022/10/09 01:15:09;;;;;;;21.93;14.37;;;;;;;10.25;100.00;95006.94;5132511;27;20621;-78
2022/10/09 01:17:42;;;;;;;27.90;14.57;;;;;;;10.14;100.00;95010.19;5131657;27;20179;-79
2022/10/09 01:20:30;;;;;;;24.40;14.90;;;;;;;10.22;100.00;95012.56;5131409;27;20219;-80
2022/10/09 01:23:35;;;;;;;21.63;14.43;;;;;;;10.27;100.00;95011.94;5131934;27;20175;-79
2022/10/09 01:26:14;;;;;;;21.03;13.57;;;;;;;10.43;100.00;95019.25;5113437;27;20634;-79
2022/10/09 01:28:45;;;;;;;20.10;13.47;;;;;;;10.55;100.00;95021.00;5132272;27;20176;-78
2022/10/09 01:31:13;;;;;;;22.93;13.27;;;;;;;10.64;100.00;95022.34;5132021;27;20179;-78
2022/10/09 01:33:41;;;;;;;20.77;12.97;;;;;;;10.69;100.00;95019.91;5131525;27;20217;-77
2022/10/09 01:36:09;;;;;;;21.57;13.70;;;;;;;10.67;100.00;95013.34;5132125;27;20191;-77
2022/10/09 01:38:39;;;;;;;20.67;13.57;;;;;;;10.64;100.00;95014.53;5132005;27;20229;-78
2022/10/09 01:41:08;;;;;;;21.50;13.17;;;;;;;10.71;100.00;95015.28;5132397;27;20202;-78
2022/10/09 01:43:35;;;;;;;22.10;13.63;;;;;;;10.61;100.00;95006.38;5131938;27;20554;-78
2022/10/09 01:46:20;;;;;;;20.43;13.83;;;;;;;10.65;100.00;95013.53;5131655;27;20662;-78
2022/10/09 01:48:51;;;;;;;28.90;16.23;;;;;;;10.70;100.00;95016.31;5131739;28;20219;-79
2022/10/09 01:51:21;;;;;;;25.90;16.03;;;;;;;10.69;100.00;95019.09;5131408;27;20649;-78
2022/10/09 01:53:51;;;;;;;27.70;16.03;;;;;;;10.62;100.00;95018.38;5131503;27;20272;-78
2022/10/09 01:56:22;;;;;;;24.33;15.40;;;;;;;10.66;100.00;95019.53;5132180;27;20538;-78
2022/10/09 01:58:55;;;;;;;28.60;16.17;;;;;;;10.68;100.00;95026.09;5131473;27;20230;-77
2022/10/09 02:01:28;;;;;;;29.27;15.23;;;;;;;10.70;100.00;95025.91;5131288;27;20198;-78
2022/10/09 02:03:58;;;;;;;27.50;16.13;;;;;;;10.68;100.00;95018.31;5126533;28;20195;-78
2022/10/09 02:06:27;;;;;;;23.20;16.90;;;;;;;10.65;100.00;95023.13;5131737;27;20227;-78
2022/10/09 02:08:56;;;;;;;24.87;16.03;;;;;;;10.58;100.00;95027.56;5127251;27;20635;-77
2022/10/09 02:11:26;;;;;;;26.60;16.90;;;;;;;10.53;100.00;95027.41;5125623;27;20290;-79
2022/10/09 02:13:54;;;;;;;24.60;15.57;;;;;;;10.61;100.00;95029.75;5130979;27;20199;-79
2022/10/09 02:16:34;;;;;;;26.47;17.57;;;;;;;10.57;100.00;95031.97;5131211;27;20196;-78
2022/10/09 02:19:05;;;;;;;26.67;16.60;;;;;;;10.54;100.00;95031.59;5135466;27;20226;-80
2022/10/09 02:21:42;;;;;;;26.67;16.43;;;;;;;10.59;100.00;95032.56;5132686;27;20208;-80
2022/10/09 02:24:16;;;;;;;28.13;16.20;;;;;;;10.52;100.00;95038.81;5135421;27;20635;-80
2022/10/09 02:26:43;;;;;;;19.47;14.47;;;;;;;10.56;100.00;95042.59;5135861;27;20210;-80
2022/10/09 02:29:12;;;;;;;22.53;14.47;;;;;;;10.47;100.00;95036.03;5135298;27;20208;-81
2022/10/09 02:31:42;;;;;;;22.93;15.00;;;;;;;10.39;100.00;95046.66;5135650;27;20203;-80
2022/10/09 02:34:10;;;;;;;23.10;14.50;;;;;;;9.98;100.00;95046.97;5128472;27;20200;-80
2022/10/09 02:36:38;;;;;;;27.40;15.47;;;;;;;9.82;100.00;95043.00;5135502;27;20188;-81
2022/10/09 02:39:06;;;;;;;24.03;15.73;;;;;;;9.48;100.00;95033.69;5135109;27;20233;-80
2022/10/09 02:41:34;;;;;;;21.30;14.80;;;;;;;9.57;100.00;95042.06;5134346;27;20202;-80
2022/10/09 02:44:01;;;;;;;29.63;15.87;;;;;;;9.62;100.00;95043.06;5135029;27;20309;-79
2022/10/09 02:46:28;;;;;;;21.83;15.00;;;;;;;9.82;100.00;95044.81;5134662;27;20191;-78
2022/10/09 02:48:56;;;;;;;26.10;15.03;;;;;;;9.90;100.00;95039.41;5134477;27;20230;-78
2022/10/09 02:51:23;;;;;;;25.00;15.33;;;;;;;9.99;100.00;95038.97;5134476;27;20195;-79
2022/10/09 02:53:52;;;;;;;24.37;14.87;;;;;;;10.07;100.00;95038.75;5134899;27;20649;-79
2022/10/09 02:56:18;;;;;;;21.53;14.43;;;;;;;10.10;100.00;95035.72;5134834;27;20223;-78
2022/10/09 02:58:45;;;;;;;24.03;13.93;;;;;;;10.18;100.00;95037.34;5134540;27;20206;-78
2022/10/09 03:01:13;;;;;;;20.67;13.43;;;;;;;10.18;100.00;95040.75;5134457;27;20651;-77
2022/10/09 03:03:40;;;;;;;21.03;14.87;;;;;;;10.23;100.00;95037.53;5134318;27;20210;-77
2022/10/09 03:06:10;;;;;;;18.83;12.87;;;;;;;10.30;100.00;95042.72;5134234;27;20199;-78
2022/10/09 03:08:38;;;;;;;25.07;14.07;;;;;;;10.29;100.00;95041.91;5134758;27;20191;-78
2022/10/09 03:11:05;;;;;;;21.53;14.10;;;;;;;10.25;100.00;95033.72;5133966;27;20214;-78
2022/10/09 03:13:32;;;;;;;21.27;14.03;;;;;;;10.28;100.00;95045.50;5133547;27;20194;-77
2022/10/09 03:16:03;;;;;;;21.93;13.97;;;;;;;10.30;100.00;95043.50;5135537;27;20199;-77
2022/10/09 03:18:30;;;;;;;25.97;14.33;;;;;;;10.33;100.00;95053.50;5133041;27;20199;-78
2022/10/09 03:20:57;;;;;;;26.40;14.93;;;;;;;10.34;100.00;95057.66;5134541;27;20255;-78
2022/10/09 03:23:26;;;;;;;26.20;16.30;;;;;;;10.29;100.00;95049.69;5133814;27;20226;-79
2022/10/09 03:25:56;;;;;;;23.27;15.07;;;;;;;10.31;100.00;95055.47;5134039;27;20202;-79
2022/10/09 03:28:23;;;;;;;22.93;15.40;;;;;;;10.33;100.00;95050.88;5133655;27;20206;-78
2022/10/09 03:30:50;;;;;;;27.80;16.10;;;;;;;10.36;100.00;95060.06;5133693;27;20195;-79
2022/10/09 03:33:16;;;;;;;26.47;15.80;;;;;;;10.36;100.00;95057.47;5133485;27;20677;-79
2022/10/09 03:35:45;;;;;;;25.17;15.30;;;;;;;10.31;100.00;95062.47;5133963;27;20195;-79
2022/10/09 03:38:12;;;;;;;24.23;15.37;;;;;;;10.29;100.00;95054.91;5133779;27;20589;-78
2022/10/09 03:40:40;;;;;;;31.17;16.20;;;;;;;10.27;100.00;95062.88;5132967;27;20228;-78
2022/10/09 03:43:07;;;;;;;27.77;16.87;;;;;;;10.27;100.00;95065.47;5133364;27;20206;-78
2022/10/09 03:45:33;;;;;;;31.37;18.67;;;;;;;10.07;100.00;95066.53;5133443;27;20206;-79
2022/10/09 03:48:00;;;;;;;28.93;18.83;;;;;;;9.83;100.00;95065.38;5133709;27;20284;-78
2022/10/09 03:50:27;;;;;;;29.23;17.73;;;;;;;9.56;100.00;95067.22;5133924;27;20222;-78
2022/10/09 03:52:54;;;;;;;30.07;18.90;;;;;;;9.38;100.00;95064.41;5132801;27;20203;-78
2022/10/09 03:55:21;;;;;;;30.73;18.83;;;;;;;9.34;100.00;95062.44;5133402;27;20206;-78
2022/10/09 03:57:49;;;;;;;31.77;19.73;;;;;;;9.42;100.00;95067.41;5132924;27;20218;-77
2022/10/09 04:00:16;;;;;;;29.17;18.83;;;;;;;9.45;100.00;95062.63;5132679;27;20414;-78
2022/10/09 04:02:43;;;;;;;27.67;18.23;;;;;;;9.60;100.00;95065.03;5133186;27;20199;-77
2022/10/09 04:05:10;;;;;;;28.40;18.43;;;;;;;9.70;100.00;95061.00;5132745;27;20203;-78
2022/10/09 04:07:37;;;;;;;25.17;16.07;;;;;;;9.78;100.00;95069.59;5132233;27;20204;-78
2022/10/09 04:10:04;;;;;;;27.83;17.90;;;;;;;9.86;100.00;95062.38;5133264;27;20191;-78
2022/10/09 04:12:31;;;;;;;27.23;17.07;;;;;;;9.92;100.00;95071.97;5132346;27;20199;-79
2022/10/09 04:15:00;;;;;;;29.60;17.87;;;;;;;9.95;100.00;95071.56;5132769;27;20191;-79
2022/10/09 04:17:27;;;;;;;26.50;17.83;;;;;;;9.97;100.00;95072.13;5123705;27;20200;-79
2022/10/09 04:19:54;;;;;;;25.83;16.93;;;;;;;9.98;100.00;95068.56;5124955;27;20238;-79
2022/10/09 04:22:21;;;;;;;25.87;17.13;;;;;;;9.92;100.00;95066.75;5132948;27;20207;-80
2022/10/09 04:24:47;;;;;;;30.97;18.07;;;;;;;9.85;100.00;95076.34;5132230;27;20199;-78
2022/10/09 04:27:14;;;;;;;31.43;17.50;;;;;;;9.77;100.00;95067.97;5125224;27;20195;-79
2022/10/09 04:29:41;;;;;;;32.90;18.97;;;;;;;9.78;100.00;95074.78;5132284;27;20203;-79
2022/10/09 04:32:09;;;;;;;34.57;19.27;;;;;;;9.85;100.00;95078.94;5133207;27;20624;-79
2022/10/09 04:34:36;;;;;;;25.27;17.17;;;;;;;9.88;100.00;95072.56;5126715;27;20224;-79
2022/10/09 04:37:03;;;;;;;30.77;17.63;;;;;;;9.86;100.00;95079.75;5130017;27;20225;-80
2022/10/09 04:39:30;;;;;;;25.50;17.33;;;;;;;9.86;100.00;95090.13;5119301;27;20681;-78
2022/10/09 04:41:56;;;;;;;31.73;18.60;;;;;;;9.82;100.00;95078.56;5130474;27;20211;-80
2022/10/09 04:44:23;;;;;;;28.33;17.63;;;;;;;9.77;100.00;95081.75;5133109;27;20248;-78
2022/10/09 04:46:51;;;;;;;30.20;21.80;;;;;;;9.79;100.00;95090.13;5124471;27;20627;-78
2022/10/09 04:49:19;;;;;;;33.37;19.93;;;;;;;9.80;100.00;95090.94;5101439;28;20287;-79
2022/10/09 04:51:46;;;;;;;28.27;19.00;;;;;;;9.80;100.00;95096.13;5102131;28;20195;-78
2022/10/09 04:54:13;;;;;;;30.73;20.73;;;;;;;9.85;100.00;95098.91;5101830;28;20188;-78
2022/10/09 04:56:39;;;;;;;36.63;23.33;;;;;;;9.85;100.00;95094.53;5099008;28;20212;-79
2022/10/09 04:59:07;;;;;;;39.23;24.77;;;;;;;9.87;100.00;95092.50;5101252;28;20200;-79
2022/10/09 05:01:33;;;;;;;41.60;25.80;;;;;;;9.82;100.00;95094.94;5098985;28;20219;-78
2022/10/09 05:04:00;;;;;;;38.67;25.93;;;;;;;9.45;100.00;95092.97;5099470;28;20263;-78
2022/10/09 05:06:28;;;;;;;42.23;26.50;;;;;;;9.20;100.00;95097.16;5100266;28;20206;-79
2022/10/09 05:08:55;;;;;;;47.37;30.60;;;;;;;8.99;100.00;95093.72;5105060;28;20196;-79
2022/10/09 05:11:24;;;;;;;50.57;31.40;;;;;;;9.08;100.00;95102.13;5100579;28;20782;-79
2022/10/09 05:13:53;;;;;;;73.87;41.43;;;;;;;9.09;100.00;95099.31;5100680;28;20540;-74
2022/10/09 05:16:22;;;;;;;74.03;40.77;;;;;;;9.23;100.00;95104.53;5101374;28;20192;-73
2022/10/09 05:18:50;;;;;;;69.97;39.87;;;;;;;9.30;100.00;95100.94;5101024;28;20674;-72
2022/10/09 05:21:17;;;;;;;58.63;35.73;;;;;;;9.35;100.00;95108.13;5102080;28;20223;-74
2022/10/09 05:23:46;;;;;;;64.60;36.67;;;;;;;9.42;100.00;95104.53;5100004;28;20636;-72
2022/10/09 05:26:15;;;;;;;66.47;37.03;;;;;;;9.54;100.00;95112.53;5099704;28;20192;-73
2022/10/09 05:28:42;;;;;;;63.40;37.90;;;;;;;9.63;100.00;95112.13;5100042;28;20199;-74
2022/10/09 05:31:12;;;;;;;72.10;38.37;;;;;;;9.73;100.00;95121.28;5098310;28;20184;-72
2022/10/09 05:33:39;;;;;;;82.07;40.00;;;;;;;9.87;100.00;95120.28;5098396;28;20678;-73
2022/10/09 05:36:06;;;;;;;73.07;42.07;;;;;;;9.93;100.00;95122.88;5106588;27;20269;-74
2022/10/09 05:38:33;;;;;;;71.37;41.67;;;;;;;10.01;100.00;95130.47;5100521;28;20248;-73
2022/10/09 05:41:04;;;;;;;88.03;43.43;;;;;;;10.04;100.00;95126.66;5099104;28;20277;-73
2022/10/09 05:43:34;;;;;;;69.80;43.53;;;;;;;10.04;100.00;95124.06;5100252;28;20192;-73
2022/10/09 05:46:08;;;;;;;82.33;45.53;;;;;;;10.04;100.00;95119.66;5100783;28;20188;-72
2022/10/09 05:48:35;;;;;;;78.37;46.70;;;;;;;9.98;100.00;95112.69;5101614;28;20227;-72
2022/10/09 05:51:07;;;;;;;88.70;46.73;;;;;;;10.14;100.00;95130.47;5101900;28;20276;-72
2022/10/09 05:53:34;;;;;;;75.83;47.53;;;;;;;10.22;100.00;95132.03;5104805;28;20191;-73
2022/10/09 05:56:30;;;;;;;68.93;42.93;;;;;;;10.26;100.00;95133.22;5103093;28;20205;-72
2022/10/09 05:59:00;;;;;;;53.13;32.73;;;;;;;10.42;100.00;95130.16;5104958;28;20202;-73
2022/10/09 06:01:28;;;;;;;56.07;32.93;;;;;;;10.46;100.00;95138.38;5104018;27;20226;-73
2022/10/09 06:03:57;;;;;;;54.87;34.73;;;;;;;10.52;100.00;95142.75;5111421;28;20207;-73
2022/10/09 06:06:25;;;;;;;54.87;33.37;;;;;;;10.53;100.00;95145.16;5103727;28;20196;-73
2022/10/09 06:08:52;;;;;;;47.23;27.47;;;;;;;10.64;100.00;95152.31;5102188;28;20192;-72
2022/10/09 06:11:22;;;;;;;42.43;26.83;;;;;;;10.70;100.00;95148.09;5103442;28;20203;-74
2022/10/09 06:13:50;;;;;;;42.27;25.93;;;;;;;10.77;100.00;95152.25;5104362;28;20256;-79
2022/10/09 06:16:18;;;;;;;31.53;21.67;;;;;;;10.85;100.00;95153.78;5106288;28;20200;-81
2022/10/09 06:18:47;;;;;;;36.50;20.67;;;;;;;10.94;100.00;95159.59;5113206;28;20196;-82
2022/10/09 06:21:15;;;;;;;30.00;19.53;;;;;;;10.95;100.00;95158.56;5113559;28;20698;-73
2022/10/09 06:23:42;;;;;;;35.00;19.63;;;;;;;10.96;100.00;95160.97;5113724;28;20204;-73
2022/10/09 06:26:12;;;;;;;29.10;17.83;;;;;;;11.01;100.00;95163.75;5113161;28;20581;-72
2022/10/09 06:28:40;;;;;;;27.23;17.30;;;;;;;11.04;100.00;95167.72;5113437;28;20188;-71
2022/10/09 06:31:09;;;;;;;27.67;17.10;;;;;;;11.13;100.00;95176.88;5110046;28;20196;-71
2022/10/09 06:33:38;;;;;;;25.63;16.33;;;;;;;11.18;100.00;95179.66;5114143;28;20200;-73
2022/10/09 06:36:07;;;;;;;29.07;16.40;;;;;;;11.20;100.00;95177.63;5114138;28;20226;-73
2022/10/09 06:38:34;;;;;;;27.10;15.53;;;;;;;11.23;100.00;95174.63;5113171;28;20222;-72
2022/10/09 06:41:02;;;;;;;26.43;16.30;;;;;;;11.29;100.00;95172.00;5113173;28;20232;-72
2022/10/09 06:43:29;;;;;;;38.13;16.63;;;;;;;11.27;100.00;95157.59;5113267;28;20249;-73
2022/10/09 06:46:00;;;;;;;28.30;15.13;;;;;;;11.34;100.00;95189.59;5114204;28;20203;-73
2022/10/09 06:48:29;;;;;;;26.70;14.87;;;;;;;11.32;100.00;95181.97;5128451;27;20230;-72
2022/10/09 06:50:56;;;;;;;19.93;14.20;;;;;;;11.35;100.00;95181.56;5134253;27;20263;-72
2022/10/09 06:53:23;;;;;;;23.63;14.33;;;;;;;11.37;100.00;95184.75;5133630;27;20199;-72
2022/10/09 06:55:53;;;;;;;24.00;13.97;;;;;;;11.42;100.00;95191.94;5134283;27;20203;-72
2022/10/09 06:58:20;;;;;;;17.87;14.23;;;;;;;11.52;100.00;95178.44;5134308;27;20283;-73
2022/10/09 07:00:47;;;;;;;30.43;14.63;;;;;;;11.67;100.00;95178.94;5134543;27;20223;-72
2022/10/09 07:03:15;;;;;;;26.37;14.47;;;;;;;11.68;100.00;95176.16;5133562;27;20210;-73
2022/10/09 07:05:43;;;;;;;24.43;14.20;;;;;;;11.72;100.00;95185.16;5133726;27;20657;-72
2022/10/09 07:08:09;;;;;;;22.57;15.00;;;;;;;11.74;100.00;95180.53;5133835;27;20241;-73
2022/10/09 07:10:36;;;;;;;25.07;15.77;;;;;;;11.77;100.00;95179.31;5133543;27;20210;-73
2022/10/09 07:13:03;;;;;;;26.87;15.20;;;;;;;11.80;100.00;95182.28;5134359;27;20199;-72
2022/10/09 07:15:30;;;;;;;24.23;15.07;;;;;;;11.87;100.00;95182.22;5133611;27;20210;-72
2022/10/09 07:17:56;;;;;;;24.23;15.70;;;;;;;11.93;100.00;95186.59;5134010;27;20207;-72
2022/10/09 07:20:25;;;;;;;23.43;15.10;;;;;;;11.95;100.00;95184.56;5133274;27;20223;-72
2022/10/09 07:22:51;;;;;;;22.10;15.70;;;;;;;12.00;100.00;95186.56;5133751;27;20199;-73
2022/10/09 07:25:18;;;;;;;23.97;14.93;;;;;;;12.03;100.00;95188.72;5133642;27;20207;-72
2022/10/09 07:27:45;;;;;;;25.20;15.67;;;;;;;12.14;100.00;95188.84;5133683;27;20282;-72
2022/10/09 07:30:12;;;;;;;23.30;15.77;;;;;;;12.18;100.00;95200.41;5133430;27;20210;-72
2022/10/09 07:32:39;;;;;;;22.70;15.73;;;;;;;12.27;100.00;95204.34;5133329;27;20207;-73
2022/10/09 07:35:06;;;;;;;23.70;14.93;;;;;;;12.32;100.00;95198.50;5133455;27;20199;-75
2022/10/09 07:37:35;;;;;;;23.97;16.23;;;;;;;12.38;100.00;95190.59;5126038;27;20200;-78
2022/10/09 07:40:01;;;;;;;30.03;16.57;;;;;;;12.59;100.00;95204.22;5122896;27;20677;-73
2022/10/09 07:42:28;;;;;;;25.33;16.60;;;;;;;12.59;100.00;95199.81;5121951;27;20215;-73
2022/10/09 07:44:55;;;;;;;24.63;16.50;;;;;;;12.65;100.00;95200.75;5123550;27;20187;-76
2022/10/09 07:47:22;;;;;;;25.90;15.47;;;;;;;12.69;100.00;95205.34;5120832;27;20239;-77
2022/10/09 07:49:48;;;;;;;28.13;16.70;;;;;;;12.82;100.00;95209.59;5129465;27;20199;-76
2022/10/09 07:52:15;;;;;;;24.73;15.97;;;;;;;12.96;100.00;95195.38;5125198;27;20190;-75
2022/10/09 07:54:43;;;;;;;29.50;18.27;;;;;;;13.08;100.00;95204.09;5130200;27;20195;-77
2022/10/09 07:57:10;;;;;;;24.70;16.87;;;;;;;13.24;100.00;95200.91;5132778;27;20560;-77
2022/10/09 07:59:37;;;;;;;30.23;16.07;;;;;;;13.32;100.00;95192.75;5125512;27;21170;-76
2022/10/09 08:02:04;;;;;;;26.23;16.03;;;;;;;13.44;100.00;95195.44;5124442;27;20844;-77
2022/10/09 08:04:31;;;;;;;24.27;16.03;;;;;;;13.64;100.00;95201.16;5124435;27;20196;-77
2022/10/09 08:06:58;;;;;;;27.20;16.17;;;;;;;13.87;100.00;95190.78;5124794;27;20207;-78
2022/10/09 08:09:25;;;;;;;22.67;15.33;;;;;;;13.98;100.00;95197.81;5121834;27;20192;-78
2022/10/09 08:11:54;;;;;;;27.20;15.60;;;;;;;14.04;100.00;95193.50;5124423;27;20189;-79
2022/10/09 08:14:20;;;;;;;26.40;15.50;;;;;;;13.96;100.00;95186.81;5124693;27;20198;-78
2022/10/09 08:16:47;;;;;;;20.80;12.80;;;;;;;14.27;100.00;95184.88;5124090;27;20191;-76
2022/10/09 08:19:14;;;;;;;18.37;10.27;;;;;;;14.63;100.00;95185.47;5123104;27;20194;-76
2022/10/09 08:21:41;;;;;;;20.40;11.30;;;;;;;15.06;100.00;95189.50;5126461;27;20226;-82
2022/10/09 08:24:10;;;;;;;15.73;9.77;;;;;;;15.50;98.58;95177.53;5133377;27;20255;-83
2022/10/09 08:26:37;;;;;;;14.07;9.10;;;;;;;15.87;97.46;95179.47;5132987;27;20286;-81
2022/10/09 08:29:07;;;;;;;17.40;10.10;;;;;;;16.18;95.32;95180.75;5131417;27;20195;-81
2022/10/09 08:31:34;;;;;;;11.60;8.40;;;;;;;16.32;92.85;95191.72;5121483;27;20290;-81
2022/10/09 08:34:03;;;;;;;12.80;7.67;;;;;;;16.41;91.43;95192.91;5125076;27;20195;-81
2022/10/09 08:36:30;;;;;;;13.10;7.57;;;;;;;16.50;91.62;95191.47;5114715;27;20200;-82
2022/10/09 08:38:57;;;;;;;11.40;7.67;;;;;;;16.43;92.60;95193.44;5132700;27;20188;-80
2022/10/09 08:41:37;;;;;;;15.23;7.57;;;;;;;16.37;93.84;95199.66;5125558;27;20219;-81
2022/10/09 08:44:11;;;;;;;10.13;6.37;;;;;;;16.60;92.11;95193.44;5128960;27;20195;-75
2022/10/09 08:46:49;;;;;;;10.57;6.40;;;;;;;16.88;89.31;95196.72;5119079;27;20195;-81
2022/10/09 08:49:25;;;;;;;10.33;6.87;;;;;;;17.25;87.68;95186.41;5122022;27;20196;-79
2022/10/09 08:51:54;;;;;;;13.07;7.00;;;;;;;17.54;86.11;95176.50;5122089;27;20188;-83
2022/10/09 08:54:33;;;;;;;9.40;6.97;;;;;;;17.82;84.85;95176.22;5120720;27;20205;-78
2022/10/09 08:57:03;;;;;;;15.80;6.50;;;;;;;18.21;83.67;95174.16;5125581;27;20196;-78
2022/10/09 08:59:32;;;;;;;12.35;6.28;;;;;;;18.62;82.89;95175.25;5115409;27;20192;-79
2022/10/09 09:02:08;;;;;;;10.52;6.13;;;;;;;19.04;79.38;95173.38;5116172;27;20219;-77
2022/10/09 09:04:44;;;;;;;10.82;6.50;;;;;;;19.47;77.71;95172.22;5122629;27;20187;-78
2022/10/09 09:07:18;;;;;;;13.02;6.50;;;;;;;19.77;75.92;95168.84;5131034;27;20222;-80
2022/10/09 09:09:52;;;;;;;10.77;5.70;;;;;;;19.77;75.37;95174.91;5131449;27;20208;-77
2022/10/09 09:12:28;;;;;;;17.65;6.43;;;;;;;20.04;74.54;95177.31;5122753;27;20283;-78
2022/10/09 09:15:35;;;;;;;7.68;6.05;;;;;;;20.46;72.52;95171.00;5122094;27;20202;-77
2022/10/09 09:18:13;;;;;;;11.07;5.90;;;;;;;20.70;72.67;95177.28;5122690;27;20269;-78
2022/10/09 09:20:47;;;;;;;11.95;5.72;;;;;;;20.98;70.82;95168.72;5120564;27;20199;-81
2022/10/09 09:23:24;;;;;;;9.63;5.35;;;;;;;21.16;70.57;95177.94;5122338;27;20200;-79
2022/10/09 09:25:50;;;;;;;8.35;5.00;;;;;;;21.34;69.26;95178.16;5124964;27;20194;-78
2022/10/09 09:28:26;;;;;;;6.75;5.00;;;;;;;21.55;71.19;95170.91;5118205;27;20663;-78
2022/10/09 09:30:58;;;;;;;10.32;5.40;;;;;;;21.76;70.27;95182.16;5121732;27;20286;-75
2022/10/09 09:33:35;;;;;;;7.97;5.50;;;;;;;21.76;67.27;95177.63;5120398;27;20207;-73
2022/10/09 09:36:08;;;;;;;9.13;4.70;;;;;;;21.61;69.59;95179.59;5120859;27;20199;-74
2022/10/09 09:38:36;;;;;;;8.25;5.43;;;;;;;21.79;67.64;95176.31;5118597;27;20667;-74
2022/10/09 09:41:06;;;;;;;9.48;6.15;;;;;;;22.10;65.86;95185.66;5127822;27;20221;-75
2022/10/09 09:43:35;;;;;;;14.38;5.53;;;;;;;22.43;66.71;95192.00;5121758;28;20264;-78
2022/10/09 09:46:10;;;;;;;8.15;6.20;;;;;;;22.46;65.24;95189.56;5120284;28;20195;-75
2022/10/09 09:48:39;;;;;;;9.57;5.40;;;;;;;21.66;67.68;95188.28;5124857;28;20313;-74
2022/10/09 09:51:14;;;;;;;8.13;5.13;;;;;;;21.60;69.13;95185.94;5130723;27;20199;-75
2022/10/09 09:53:43;;;;;;;7.93;5.15;;;;;;;21.71;68.79;95190.09;5130807;27;20203;-75
2022/10/09 09:56:10;;;;;;;8.98;5.57;;;;;;;22.47;64.58;95191.16;5130615;27;20203;-76
2022/10/09 09:58:43;;;;;;;8.07;5.57;;;;;;;23.02;62.28;95187.19;5125520;27;20607;-76
2022/10/09 10:01:22;;;;;;;7.72;5.40;;;;;;;23.43;62.00;95195.50;5122039;28;20734;-75
2022/10/09 10:03:50;;;;;;;11.07;4.80;;;;;;;23.53;60.97;95198.00;5120862;28;20192;-76
2022/10/09 10:06:21;;;;;;;8.73;4.70;;;;;;;23.84;59.93;95192.31;5119861;28;20196;-75
2022/10/09 10:08:58;;;;;;;6.22;4.70;;;;;;;23.83;58.31;95196.81;5122265;27;20572;-75
2022/10/09 10:11:25;;;;;;;6.63;4.80;;;;;;;24.16;58.98;95203.78;5119334;28;20658;-75
2022/10/09 10:14:06;;;;;;;10.32;5.90;;;;;;;24.42;57.68;95190.88;5118604;28;20202;-75
2022/10/09 10:16:38;;;;;;;17.75;9.48;;;;;;;24.73;57.03;95196.47;5122210;28;20621;-75
2022/10/09 10:19:06;;;;;;;16.13;8.20;;;;;;;24.77;56.03;95192.13;5119041;27;20279;-75
2022/10/09 10:21:40;;;;;;;13.57;8.13;;;;;;;24.85;55.84;95199.47;5123757;28;20224;-74
2022/10/09 10:24:15;;;;;;;12.65;6.55;;;;;;;25.39;54.53;95199.50;5123335;27;20191;-73
2022/10/09 10:26:43;;;;;;;189.68;84.15;;;;;;;25.42;54.51;95200.78;5122094;28;20225;-75
2022/10/09 10:29:15;;;;;;;537.75;262.38;;;;;;;25.75;52.74;95196.88;5121132;27;20199;-75
2022/10/09 10:31:51;;;;;;;24.35;11.93;;;;;;;26.04;51.75;95201.84;5127427;27;20662;-75
2022/10/09 10:34:23;;;;;;;10.30;4.85;;;;;;;26.36;50.35;95188.31;5124262;27;20195;-76
2022/10/09 10:36:56;;;;;;;8.15;4.57;;;;;;;27.13;49.59;95195.19;5120715;27;20192;-76
2022/10/09 10:39:31;;;;;;;7.78;4.32;;;;;;;27.28;48.41;95195.56;5127010;27;20751;-75
2022/10/09 10:42:01;;;;;;;8.57;4.93;;;;;;;27.35;47.46;95189.75;5123987;27;20202;-75
2022/10/09 10:44:39;;;;;;;8.40;5.00;;;;;;;27.51;46.49;95189.03;5123409;27;20283;-75
2022/10/09 10:47:14;;;;;;;7.57;4.97;;;;;;;27.49;45.70;95183.25;5123390;27;20219;-75
2022/10/09 10:49:41;;;;;;;10.77;5.13;;;;;;;27.19;45.35;95184.06;5104656;28;20897;-75
2022/10/09 10:52:26;;;;;;;9.13;5.13;;;;;;;27.49;44.76;95179.78;5109299;28;20212;-77
2022/10/09 10:55:06;;;;;;;8.48;5.28;;;;;;;26.98;44.38;95170.47;5113261;28;20195;-72
2022/10/09 10:57:46;;;;;;;9.75;5.13;;;;;;;27.07;44.24;95161.72;5112807;28;20208;-74
2022/10/09 11:00:15;;;;;;;4.93;4.20;;;;;;;26.37;45.83;95163.25;5112618;28;20214;-73
2022/10/09 11:03:06;;;;;;;7.38;4.30;;;;;;;26.23;47.79;95162.53;5112976;28;20243;-74
2022/10/09 11:05:49;;;;;;;9.02;4.53;;;;;;;26.29;47.01;95158.63;5109098;28;20195;-72
2022/10/09 11:08:48;;;;;;;10.40;4.72;;;;;;;26.45;46.71;95151.84;5103667;28;20192;-73
2022/10/09 11:11:22;;;;;;;6.22;4.70;;;;;;;26.75;47.33;95152.94;5102027;28;20195;-74
2022/10/09 11:14:01;;;;;;;7.70;4.90;;;;;;;27.09;46.84;95154.97;5108874;27;20189;-72
2022/10/09 11:16:48;;;;;;;7.80;4.53;;;;;;;27.78;45.39;95149.78;5103189;28;20189;-72
2022/10/09 11:19:38;;;;;;;8.38;4.43;;;;;;;27.71;44.11;95144.13;5102040;28;20211;-73
2022/10/09 11:22:14;;;;;;;10.85;4.30;;;;;;;27.94;43.25;95140.97;5102482;28;20201;-74
2022/10/09 11:25:01;;;;;;;6.78;4.57;;;;;;;27.89;42.19;95148.38;5103142;28;20199;-73
2022/10/09 11:27:38;;;;;;;6.93;4.47;;;;;;;27.72;42.85;95141.16;5106117;28;20199;-72
2022/10/09 11:30:10;;;;;;;8.15;4.82;;;;;;;27.95;42.91;95139.09;5105523;28;20242;-75